Time;durP1;ratioP1;P1;durP2;ratioP2;P2;SDS_P1;SDS_P2;PMS_P1;PMS_P2;Temp;Humidity;BMP_temperature;BMP_pressure;BME280_temperature;BME280_humidity;BME280_pressure;Samples;Min_cycle;Max_cycle;Signal;HPM_P1;HPM_P2
2022/09/11 00:02:15;;;;;;;11.60;10.30;;;18.20;99.90;;;;;;5019893;28;20486;-81
2022/09/11 00:04:42;;;;;;;10.90;9.80;;;18.20;99.90;;;;;;5013969;28;20457;-81
2022/09/11 00:07:09;;;;;;;11.93;10.53;;;18.20;99.90;;;;;;5008825;28;20458;-81
2022/09/11 00:09:35;;;;;;;11.30;9.77;;;18.20;99.90;;;;;;5008129;28;20478;-82
2022/09/11 00:12:02;;;;;;;10.70;9.70;;;18.20;99.90;;;;;;5023264;28;21738;-82
2022/09/11 00:14:29;;;;;;;11.23;10.20;;;18.10;99.90;;;;;;5027567;28;20472;-84
2022/09/11 00:16:56;;;;;;;11.90;10.50;;;18.10;99.90;;;;;;5024033;28;20457;-83
2022/09/11 00:19:22;;;;;;;12.03;10.83;;;18.10;99.90;;;;;;5023314;28;20481;-83
2022/09/11 00:21:49;;;;;;;12.23;10.63;;;18.10;99.90;;;;;;5040612;28;20472;-84
2022/09/11 00:24:17;;;;;;;11.90;10.27;;;18.10;99.90;;;;;;5030563;28;20490;-83
2022/09/11 00:26:46;;;;;;;11.30;10.10;;;18.20;99.90;;;;;;5013972;28;20460;-82
2022/09/11 00:29:13;;;;;;;13.23;11.60;;;18.10;99.90;;;;;;5023953;28;20531;-82
2022/09/11 00:31:40;;;;;;;11.80;10.70;;;18.10;99.90;;;;;;5018327;28;20493;-82
2022/09/11 00:34:07;;;;;;;13.90;11.03;;;18.10;99.90;;;;;;5013567;28;20465;-83
2022/09/11 00:36:40;;;;;;;12.20;11.00;;;18.10;99.90;;;;;;5020762;28;20454;-83
2022/09/11 00:39:07;;;;;;;12.60;11.27;;;18.10;99.90;;;;;;5021536;28;20470;-82
2022/09/11 00:41:36;;;;;;;11.70;10.50;;;18.10;99.90;;;;;;5013730;28;20509;-83
2022/09/11 00:44:14;;;;;;;12.60;11.30;;;18.00;99.90;;;;;;5015496;28;20464;-83
2022/09/11 00:46:49;;;;;;;16.07;12.27;;;18.00;99.90;;;;;;5015927;28;20441;-82
2022/09/11 00:49:25;;;;;;;16.13;11.87;;;18.00;99.90;;;;;;5016733;28;20588;-82
2022/09/11 00:51:57;;;;;;;12.33;11.17;;;18.00;99.90;;;;;;5031426;28;20457;-82
2022/09/11 00:54:28;;;;;;;12.77;11.47;;;18.00;99.90;;;;;;5019495;28;20459;-83
2022/09/11 00:56:58;;;;;;;13.60;12.17;;;18.10;99.90;;;;;;5014935;28;20449;-84
2022/09/11 00:59:30;;;;;;;14.03;12.63;;;18.00;99.90;;;;;;5030639;28;20480;-82
2022/09/11 01:01:57;;;;;;;16.23;13.23;;;18.00;99.90;;;;;;5021384;28;20482;-81
2022/09/11 01:04:25;;;;;;;13.90;12.43;;;18.10;99.90;;;;;;5029432;28;20455;-81
2022/09/11 01:06:55;;;;;;;14.00;12.53;;;18.10;99.90;;;;;;5031849;28;20490;-84
2022/09/11 01:09:24;;;;;;;12.37;11.17;;;18.00;99.90;;;;;;5023479;28;20477;-82
2022/09/11 01:12:32;;;;;;;14.13;12.70;;;18.00;99.90;;;;;;5026575;28;20447;-82
2022/09/11 01:15:02;;;;;;;14.83;13.23;;;18.00;99.90;;;;;;5037066;28;20450;-82
2022/09/11 01:17:54;;;;;;;14.50;13.03;;;18.00;99.90;;;;;;5040659;28;20460;-81
2022/09/11 01:20:43;;;;;;;14.43;12.90;;;18.00;99.90;;;;;;5027986;28;20682;-82
2022/09/11 01:23:31;;;;;;;14.60;12.83;;;18.00;99.90;;;;;;5018654;28;20465;-83
2022/09/11 01:26:36;;;;;;;13.50;12.10;;;18.00;99.90;;;;;;5018912;28;20433;-84
2022/09/11 01:29:24;;;;;;;14.07;12.67;;;18.00;99.90;;;;;;5017204;28;20457;-82
2022/09/11 01:32:10;;;;;;;13.53;11.90;;;18.00;99.90;;;;;;5009902;28;20457;-83
2022/09/11 01:34:52;;;;;;;14.87;12.50;;;18.00;99.90;;;;;;5007931;28;20508;-82
2022/09/11 01:37:27;;;;;;;13.47;12.07;;;18.00;99.90;;;;;;5003307;28;20449;-84
2022/09/11 01:40:02;;;;;;;13.60;12.30;;;17.90;99.90;;;;;;5013759;28;20472;-84
2022/09/11 01:42:32;;;;;;;13.43;12.13;;;18.00;99.90;;;;;;5021565;28;20581;-81
2022/09/11 01:45:02;;;;;;;13.63;12.23;;;17.90;99.90;;;;;;5010181;28;20868;-82
2022/09/11 01:47:33;;;;;;;14.67;11.30;;;17.80;99.90;;;;;;5008600;28;20516;-83
2022/09/11 01:50:08;;;;;;;15.13;13.50;;;17.90;99.90;;;;;;5012731;28;21277;-85
2022/09/11 01:52:42;;;;;;;14.43;12.00;;;17.90;99.90;;;;;;5015479;28;20461;-83
2022/09/11 01:55:36;;;;;;;15.27;13.67;;;17.90;99.90;;;;;;5012787;28;20442;-83
2022/09/11 01:58:14;;;;;;;14.77;13.30;;;17.90;99.90;;;;;;5007058;28;20462;-84
2022/09/11 02:00:44;;;;;;;14.57;12.83;;;17.90;99.90;;;;;;5009597;28;20508;-83
2022/09/11 02:03:24;;;;;;;21.17;14.03;;;17.90;99.90;;;;;;5011489;28;20452;-83
2022/09/11 02:05:57;;;;;;;14.80;13.30;;;17.90;99.90;;;;;;5012082;28;20462;-84
2022/09/11 02:08:39;;;;;;;17.17;13.50;;;17.90;99.90;;;;;;5007520;28;20442;-82
2022/09/11 02:11:09;;;;;;;16.37;14.67;;;17.90;99.90;;;;;;5011088;28;20463;-83
2022/09/11 02:14:11;;;;;;;16.97;15.27;;;17.90;99.90;;;;;;5016794;28;20449;-82
2022/09/11 02:16:49;;;;;;;18.43;16.73;;;17.90;99.90;;;;;;5010291;28;20453;-82
2022/09/11 02:19:24;;;;;;;20.63;17.33;;;17.90;99.90;;;;;;5011517;28;20551;-84
2022/09/11 02:21:51;;;;;;;18.00;16.10;;;17.90;99.90;;;;;;5016012;28;21182;-84
2022/09/11 02:24:21;;;;;;;17.27;15.43;;;17.80;99.90;;;;;;5016995;28;20469;-80
2022/09/11 02:26:57;;;;;;;17.90;16.00;;;17.80;99.90;;;;;;5013464;28;20438;-81
2022/09/11 02:29:25;;;;;;;18.00;15.70;;;17.90;99.90;;;;;;5013353;28;20503;-82
2022/09/11 02:31:53;;;;;;;19.03;17.00;;;17.80;99.90;;;;;;5024650;28;20446;-81
2022/09/11 02:34:28;;;;;;;19.17;17.20;;;17.80;99.90;;;;;;5015714;28;20485;-83
2022/09/11 02:37:11;;;;;;;18.53;16.67;;;17.80;99.90;;;;;;5015534;28;20464;-83
2022/09/11 02:40:06;;;;;;;18.67;16.67;;;17.80;99.90;;;;;;5015459;28;20559;-82
2022/09/11 02:42:38;;;;;;;23.23;19.67;;;17.80;99.90;;;;;;5010964;28;20520;-82
2022/09/11 02:45:27;;;;;;;21.83;19.40;;;17.80;99.90;;;;;;5020033;28;20442;-82
2022/09/11 02:48:24;;;;;;;21.87;17.53;;;17.80;99.90;;;;;;5028235;28;21237;-82
2022/09/11 02:51:19;;;;;;;20.63;18.43;;;17.80;99.90;;;;;;5028331;28;20617;-82
2022/09/11 02:54:03;;;;;;;20.37;18.17;;;17.80;99.90;;;;;;5014709;28;20460;-83
2022/09/11 02:56:43;;;;;;;22.57;19.10;;;17.70;99.90;;;;;;5013112;28;20456;-85
2022/09/11 02:59:19;;;;;;;22.07;18.37;;;17.70;99.90;;;;;;5011288;28;20979;-82
2022/09/11 03:01:53;;;;;;;24.53;20.30;;;17.70;99.90;;;;;;5015141;28;20504;-83
2022/09/11 03:04:23;;;;;;;21.20;18.53;;;17.70;99.90;;;;;;5018999;28;20456;-83
2022/09/11 03:06:50;;;;;;;26.60;20.77;;;17.70;99.90;;;;;;5010518;28;20465;-82
2022/09/11 03:09:19;;;;;;;21.80;19.50;;;17.70;99.90;;;;;;5010648;28;20839;-84
2022/09/11 03:11:46;;;;;;;24.30;20.57;;;17.70;99.90;;;;;;5018655;28;20467;-84
2022/09/11 03:14:13;;;;;;;22.30;18.43;;;17.70;99.90;;;;;;5013188;28;20530;-82
2022/09/11 03:16:40;;;;;;;21.20;19.10;;;17.70;99.90;;;;;;5015614;28;21007;-83
2022/09/11 03:19:07;;;;;;;23.03;19.27;;;17.70;99.90;;;;;;5016468;28;20468;-83
2022/09/11 03:21:34;;;;;;;23.87;21.37;;;17.80;99.90;;;;;;5014709;28;20539;-82
2022/09/11 03:24:02;;;;;;;26.50;20.20;;;17.70;99.90;;;;;;5019892;28;20469;-83
2022/09/11 03:26:31;;;;;;;21.97;19.70;;;17.70;99.90;;;;;;5013063;28;20474;-83
2022/09/11 03:28:58;;;;;;;25.83;21.70;;;17.70;99.90;;;;;;5011660;28;20559;-82
2022/09/11 03:31:26;;;;;;;24.93;20.87;;;17.70;99.90;;;;;;5013906;28;21585;-86
2022/09/11 03:33:54;;;;;;;22.97;20.70;;;17.70;99.90;;;;;;5014145;28;20480;-85
2022/09/11 03:36:21;;;;;;;27.40;20.80;;;17.60;99.90;;;;;;5017780;28;20958;-83
2022/09/11 03:38:48;;;;;;;25.10;21.47;;;17.60;99.90;;;;;;5018323;28;20485;-83
2022/09/11 03:41:15;;;;;;;21.77;19.53;;;17.70;99.90;;;;;;5023929;28;20635;-82
2022/09/11 03:43:43;;;;;;;26.43;22.63;;;17.70;99.90;;;;;;5020863;28;20900;-83
2022/09/11 03:46:10;;;;;;;26.17;21.77;;;17.70;99.90;;;;;;5021491;28;20452;-84
2022/09/11 03:48:37;;;;;;;26.40;21.33;;;17.70;99.90;;;;;;5026315;28;20465;-83
2022/09/11 03:51:04;;;;;;;21.77;19.37;;;17.70;99.90;;;;;;5035910;28;20446;-82
2022/09/11 03:53:32;;;;;;;26.33;21.97;;;17.60;99.90;;;;;;5041178;28;20656;-82
2022/09/11 03:56:02;;;;;;;27.07;21.17;;;17.60;99.90;;;;;;5032898;28;20469;-83
2022/09/11 03:58:29;;;;;;;24.13;21.57;;;17.60;99.90;;;;;;5031320;28;20450;-84
2022/09/11 04:00:56;;;;;;;27.80;21.47;;;17.60;99.90;;;;;;5030444;28;20456;-84
2022/09/11 04:03:23;;;;;;;26.13;22.33;;;17.60;99.90;;;;;;5028643;28;20485;-85
2022/09/11 04:06:01;;;;;;;24.43;21.03;;;17.60;99.90;;;;;;5026734;28;20484;-85
2022/09/11 04:08:32;;;;;;;29.40;23.53;;;17.60;99.90;;;;;;5024118;28;20480;-83
2022/09/11 04:11:01;;;;;;;28.37;22.80;;;17.60;99.90;;;;;;5024764;28;20441;-83
2022/09/11 04:13:30;;;;;;;29.57;23.90;;;17.60;99.90;;;;;;5033578;28;20470;-82
2022/09/11 04:16:03;;;;;;;30.33;24.60;;;17.60;99.90;;;;;;5025992;28;20473;-83
2022/09/11 04:18:33;;;;;;;28.40;23.43;;;17.60;99.90;;;;;;5022245;28;20459;-83
2022/09/11 04:21:10;;;;;;;25.67;22.33;;;17.80;99.90;;;;;;5023474;28;20484;-83
2022/09/11 04:23:37;;;;;;;29.30;24.53;;;17.80;99.90;;;;;;5022199;28;20508;-83
2022/09/11 04:26:14;;;;;;;26.87;23.47;;;17.70;99.90;;;;;;5018826;28;21274;-84
2022/09/11 04:28:42;;;;;;;29.47;22.27;;;17.60;99.90;;;;;;5038067;28;20453;-84
2022/09/11 04:31:09;;;;;;;28.23;22.50;;;17.60;99.90;;;;;;5025509;28;20453;-83
2022/09/11 04:33:38;;;;;;;28.13;21.50;;;17.50;99.90;;;;;;5026974;28;20466;-83
2022/09/11 04:36:08;;;;;;;26.40;20.90;;;17.50;99.90;;;;;;5026392;28;20548;-84
2022/09/11 04:38:36;;;;;;;28.07;23.00;;;17.50;99.90;;;;;;5041269;28;20480;-84
2022/09/11 04:41:05;;;;;;;29.27;22.77;;;17.40;99.90;;;;;;5028676;28;20488;-84
2022/09/11 04:43:38;;;;;;;31.73;22.50;;;17.40;99.90;;;;;;5041079;28;20500;-85
2022/09/11 04:46:08;;;;;;;28.33;22.07;;;17.50;99.90;;;;;;5035632;28;20525;-83
2022/09/11 04:48:38;;;;;;;27.00;21.30;;;17.40;99.90;;;;;;5040115;28;20476;-82
2022/09/11 04:51:14;;;;;;;30.60;24.33;;;17.60;99.90;;;;;;5030240;28;20480;-82
2022/09/11 04:53:51;;;;;;;28.63;22.10;;;17.60;99.90;;;;;;5032645;28;20465;-80
2022/09/11 04:56:20;;;;;;;31.97;22.47;;;17.50;99.90;;;;;;5031822;28;20480;-80
2022/09/11 04:59:14;;;;;;;28.17;22.37;;;17.50;99.90;;;;;;5040151;28;20476;-83
2022/09/11 05:01:55;;;;;;;33.13;24.27;;;17.50;99.90;;;;;;5039749;28;20497;-81
2022/09/11 05:04:28;;;;;;;26.57;22.00;;;17.50;99.90;;;;;;5036592;28;20426;-81
2022/09/11 05:07:15;;;;;;;30.53;22.60;;;17.50;99.90;;;;;;5015254;28;20495;-82
2022/09/11 05:09:54;;;;;;;27.70;22.00;;;17.50;99.90;;;;;;5016787;28;20462;-83
2022/09/11 05:12:50;;;;;;;28.13;21.10;;;17.50;99.90;;;;;;5011171;28;21051;-85
2022/09/11 05:15:37;;;;;;;31.90;24.00;;;17.50;99.90;;;;;;5000725;28;20429;-81
2022/09/11 05:18:18;;;;;;;31.80;24.63;;;17.50;99.90;;;;;;5020671;28;20473;-83
2022/09/11 05:20:57;;;;;;;42.83;27.30;;;17.60;99.90;;;;;;5033224;28;20513;-83
2022/09/11 05:23:44;;;;;;;42.67;28.30;;;17.60;99.90;;;;;;5022690;28;20514;-83
2022/09/11 05:26:31;;;;;;;42.00;28.70;;;17.60;99.90;;;;;;5027644;28;20453;-82
2022/09/11 05:29:08;;;;;;;39.70;26.60;;;17.60;99.90;;;;;;5010225;28;21217;-83
2022/09/11 05:31:46;;;;;;;38.47;26.30;;;17.50;99.90;;;;;;5012347;28;20464;-81
2022/09/11 05:34:17;;;;;;;43.37;27.20;;;17.60;99.90;;;;;;5014631;28;20469;-83
2022/09/11 05:36:51;;;;;;;40.40;27.83;;;17.70;99.90;;;;;;5013708;28;20473;-82
2022/09/11 05:39:20;;;;;;;46.67;30.23;;;17.60;99.90;;;;;;5013991;28;20473;-83
2022/09/11 05:42:14;;;;;;;58.83;33.80;;;17.70;99.90;;;;;;5011500;28;20512;-83
2022/09/11 05:44:46;;;;;;;52.97;31.67;;;17.90;99.90;;;;;;5009988;28;20462;-83
2022/09/11 05:47:21;;;;;;;55.37;31.47;;;17.80;99.90;;;;;;5008097;28;20509;-82
2022/09/11 05:49:57;;;;;;;53.37;31.83;;;17.80;99.90;;;;;;5015637;28;20528;-82
2022/09/11 05:52:24;;;;;;;56.07;30.17;;;17.70;99.90;;;;;;5008518;28;22009;-83
2022/09/11 05:55:00;;;;;;;51.47;32.57;;;17.70;99.90;;;;;;5013707;28;20454;-84
2022/09/11 05:57:34;;;;;;;54.10;31.90;;;17.60;99.90;;;;;;5012041;28;20464;-83
2022/09/11 06:00:16;;;;;;;49.13;31.40;;;17.60;99.90;;;;;;5011654;28;20539;-84
2022/09/11 06:02:47;;;;;;;54.17;30.90;;;17.50;99.90;;;;;;5009111;28;20486;-82
2022/09/11 06:05:18;;;;;;;60.43;33.07;;;17.40;99.90;;;;;;5011966;28;21257;-82
2022/09/11 06:07:49;;;;;;;55.00;30.50;;;17.40;99.90;;;;;;5010562;28;20477;-82
2022/09/11 06:10:19;;;;;;;62.03;32.70;;;17.30;99.90;;;;;;5010973;28;20523;-82
2022/09/11 06:12:58;;;;;;;55.10;31.83;;;17.30;99.90;;;;;;5025354;28;20512;-84
2022/09/11 06:15:31;;;;;;;55.10;32.50;;;17.50;99.90;;;;;;5027451;28;20457;-83
2022/09/11 06:18:19;;;;;;;65.40;33.80;;;17.40;99.90;;;;;;5026554;28;20544;-83
2022/09/11 06:21:02;;;;;;;59.37;34.23;;;17.50;99.90;;;;;;5012515;28;20473;-81
2022/09/11 06:23:29;;;;;;;59.67;34.03;;;17.50;99.90;;;;;;5011767;28;21178;-84
2022/09/11 06:26:08;;;;;;;54.90;31.60;;;17.50;99.90;;;;;;5016419;28;20449;-82
2022/09/11 06:28:42;;;;;;;63.20;32.93;;;17.50;99.90;;;;;;5035395;28;20445;-81
2022/09/11 06:31:15;;;;;;;57.37;31.70;;;17.40;99.90;;;;;;5037189;28;20455;-82
2022/09/11 06:33:50;;;;;;;64.13;34.17;;;17.50;99.90;;;;;;5030469;28;20500;-82
2022/09/11 06:36:27;;;;;;;63.80;35.10;;;17.40;99.90;;;;;;5016017;28;20456;-82
2022/09/11 06:38:56;;;;;;;58.60;32.77;;;17.40;99.90;;;;;;5011309;28;20465;-81
2022/09/11 06:41:41;;;;;;;57.93;33.10;;;17.40;99.90;;;;;;5012713;28;20514;-83
2022/09/11 06:44:16;;;;;;;59.33;32.40;;;17.40;99.90;;;;;;5019067;28;20450;-83
2022/09/11 06:46:53;;;;;;;58.93;34.13;;;17.40;99.90;;;;;;5017182;28;20544;-80
2022/09/11 06:49:26;;;;;;;49.10;27.70;;;17.40;99.90;;;;;;5020763;28;20560;-84
2022/09/11 06:51:59;;;;;;;45.00;26.23;;;17.40;99.90;;;;;;5026865;28;20469;-82
2022/09/11 06:54:38;;;;;;;37.80;25.50;;;17.40;99.90;;;;;;5013569;28;20520;-84
2022/09/11 06:57:06;;;;;;;39.13;24.47;;;17.40;99.90;;;;;;5017715;28;20537;-81
2022/09/11 06:59:43;;;;;;;40.23;25.80;;;17.40;99.90;;;;;;5027321;28;20897;-81
2022/09/11 07:02:14;;;;;;;41.23;26.03;;;17.40;99.90;;;;;;5013060;28;21533;-81
2022/09/11 07:04:45;;;;;;;37.50;22.80;;;17.40;99.90;;;;;;5026129;28;20450;-81
2022/09/11 07:07:16;;;;;;;34.90;24.50;;;17.40;99.90;;;;;;5012073;28;20904;-82
2022/09/11 07:09:48;;;;;;;38.77;24.40;;;17.40;99.90;;;;;;5014276;28;20483;-85
2022/09/11 07:12:22;;;;;;;35.30;22.77;;;17.40;99.90;;;;;;5009918;28;20458;-82
2022/09/11 07:15:08;;;;;;;42.03;24.80;;;17.40;99.90;;;;;;5019562;28;20433;-83
2022/09/11 07:17:39;;;;;;;41.80;24.90;;;17.40;99.90;;;;;;5015920;28;20638;-82
2022/09/11 07:20:13;;;;;;;35.53;22.43;;;17.40;99.90;;;;;;5025706;28;20481;-81
2022/09/11 07:22:48;;;;;;;32.87;23.17;;;17.40;99.90;;;;;;5029022;28;20639;-83
2022/09/11 07:25:22;;;;;;;34.50;22.60;;;17.40;99.90;;;;;;5018176;28;20446;-85
2022/09/11 07:27:57;;;;;;;32.60;20.80;;;17.50;99.90;;;;;;5015544;28;20504;-84
2022/09/11 07:30:31;;;;;;;28.80;20.73;;;17.50;99.90;;;;;;5020503;28;20553;-84
2022/09/11 07:33:07;;;;;;;31.83;22.47;;;17.60;99.90;;;;;;5011519;28;21179;-82
2022/09/11 07:35:41;;;;;;;34.67;22.40;;;17.60;99.90;;;;;;5029980;28;20462;-81
2022/09/11 07:38:23;;;;;;;29.90;21.30;;;17.60;99.90;;;;;;5024045;28;20448;-83
2022/09/11 07:40:53;;;;;;;33.80;21.03;;;17.60;99.90;;;;;;5014593;28;20462;-81
2022/09/11 07:43:26;;;;;;;31.23;22.37;;;17.60;99.90;;;;;;5010666;28;20557;-83
2022/09/11 07:46:02;;;;;;;29.60;19.67;;;17.60;99.90;;;;;;5017085;28;20537;-83
2022/09/11 07:48:32;;;;;;;29.67;21.33;;;17.60;99.90;;;;;;5017108;28;20524;-82
2022/09/11 07:51:03;;;;;;;29.97;20.33;;;17.50;99.90;;;;;;5010230;28;20450;-81
2022/09/11 07:53:40;;;;;;;33.97;22.20;;;17.50;99.90;;;;;;5008376;28;20543;-83
2022/09/11 07:56:10;;;;;;;32.73;23.10;;;17.40;99.90;;;;;;5021548;28;21836;-83
2022/09/11 07:58:51;;;;;;;29.97;23.13;;;17.50;99.90;;;;;;5020962;28;20458;-83
2022/09/11 08:01:23;;;;;;;30.80;21.47;;;17.60;99.90;;;;;;5022264;28;20465;-82
2022/09/11 08:04:00;;;;;;;30.20;21.50;;;17.60;99.90;;;;;;5030983;28;20556;-83
2022/09/11 08:06:46;;;;;;;30.70;21.53;;;17.70;99.90;;;;;;5018482;28;20457;-84
2022/09/11 08:09:20;;;;;;;28.67;21.80;;;17.70;99.90;;;;;;5016463;28;20477;-84
2022/09/11 08:11:51;;;;;;;32.00;22.73;;;17.70;99.90;;;;;;5017009;28;20464;-84
2022/09/11 08:14:27;;;;;;;29.53;21.60;;;17.70;99.90;;;;;;5020149;28;20556;-84
2022/09/11 08:17:00;;;;;;;29.10;21.50;;;17.70;99.90;;;;;;5014319;28;20565;-85
2022/09/11 08:19:33;;;;;;;29.80;20.67;;;17.70;99.90;;;;;;5018994;28;20567;-83
2022/09/11 08:22:02;;;;;;;29.83;21.77;;;17.80;99.90;;;;;;5011732;28;20441;-84
2022/09/11 08:24:37;;;;;;;27.00;19.87;;;17.80;99.90;;;;;;5016215;28;20518;-81
2022/09/11 08:27:20;;;;;;;26.50;19.47;;;17.80;99.90;;;;;;5024908;28;20566;-85
2022/09/11 08:29:58;;;;;;;21.73;18.03;;;17.80;99.90;;;;;;5027754;28;20488;-83
2022/09/11 08:32:31;;;;;;;25.40;18.53;;;17.80;99.90;;;;;;5013878;28;20476;-81
2022/09/11 08:35:08;;;;;;;23.93;17.20;;;17.70;99.90;;;;;;5027336;28;20536;-85
2022/09/11 08:37:39;;;;;;;22.47;17.80;;;17.80;99.90;;;;;;5008915;28;20454;-85
2022/09/11 08:40:10;;;;;;;21.63;15.63;;;17.80;99.90;;;;;;5012204;28;20462;-85
2022/09/11 08:42:44;;;;;;;20.33;15.50;;;17.80;99.90;;;;;;5025440;28;20577;-83
2022/09/11 08:45:17;;;;;;;21.27;16.10;;;17.70;99.90;;;;;;5018918;28;20444;-82
2022/09/11 08:47:58;;;;;;;21.90;16.67;;;17.70;99.90;;;;;;5014199;28;20839;-85
2022/09/11 08:50:39;;;;;;;21.03;16.03;;;17.80;99.90;;;;;;5017219;28;20465;-84
2022/09/11 08:53:17;;;;;;;21.23;16.27;;;18.00;99.90;;;;;;5024382;28;20940;-83
2022/09/11 08:56:16;;;;;;;18.70;15.33;;;18.00;99.90;;;;;;5022521;28;20500;-83
2022/09/11 08:59:09;;;;;;;18.73;15.13;;;18.00;99.90;;;;;;5021431;28;20465;-82
2022/09/11 09:02:18;;;;;;;21.73;15.43;;;18.10;99.90;;;;;;5032012;28;20462;-85
2022/09/11 09:05:27;;;;;;;19.27;15.00;;;18.20;99.90;;;;;;5019216;28;21389;-82
2022/09/11 09:08:33;;;;;;;19.57;15.87;;;18.20;99.90;;;;;;5036892;28;20757;-84
2022/09/11 09:11:15;;;;;;;22.43;17.83;;;18.10;99.90;;;;;;5032943;28;20446;-83
2022/09/11 09:13:55;;;;;;;20.93;15.00;;;18.10;99.90;;;;;;5026109;28;20462;-82
2022/09/11 09:16:44;;;;;;;20.47;15.43;;;18.10;99.90;;;;;;5021890;28;20466;-83
2022/09/11 09:19:48;;;;;;;18.83;15.30;;;18.20;99.90;;;;;;5023926;28;20477;-84
2022/09/11 09:22:45;;;;;;;20.63;15.47;;;18.30;99.90;;;;;;5013339;28;20457;-82
2022/09/11 09:25:21;;;;;;;17.87;14.47;;;19.00;99.90;;;;;;5015177;28;20521;-82
2022/09/11 09:27:59;;;;;;;22.47;17.33;;;19.10;99.90;;;;;;5020952;28;20457;-84
2022/09/11 09:30:54;;;;;;;19.93;16.27;;;19.30;99.90;;;;;;5022237;28;20473;-83
2022/09/11 09:33:39;;;;;;;25.10;16.83;;;19.30;99.90;;;;;;5020574;28;20454;-84
2022/09/11 09:36:47;;;;;;;21.10;16.10;;;19.00;99.90;;;;;;5022301;28;21145;-85
2022/09/11 09:39:27;;;;;;;21.53;17.50;;;19.10;99.90;;;;;;5024824;28;20558;-82
2022/09/11 09:42:19;;;;;;;22.47;16.87;;;19.00;99.90;;;;;;5008616;28;20531;-82
2022/09/11 09:45:15;;;;;;;24.40;16.33;;;18.80;99.90;;;;;;5019009;28;20562;-82
2022/09/11 09:47:55;;;;;;;21.40;16.60;;;18.90;99.90;;;;;;5009032;28;20462;-85
2022/09/11 09:50:38;;;;;;;25.13;17.43;;;18.70;99.90;;;;;;5013549;28;20556;-83
2022/09/11 09:53:32;;;;;;;24.30;17.40;;;18.70;99.90;;;;;;5008559;28;20609;-83
2022/09/11 09:56:08;;;;;;;21.47;16.97;;;19.00;99.90;;;;;;5012811;28;20632;-82
2022/09/11 09:58:50;;;;;;;27.33;19.07;;;18.70;99.90;;;;;;5017554;28;20461;-82
2022/09/11 10:01:38;;;;;;;25.13;19.73;;;18.60;99.90;;;;;;5008513;28;20552;-83
2022/09/11 10:04:29;;;;;;;22.37;17.97;;;18.60;99.90;;;;;;5005703;28;20478;-81
2022/09/11 10:07:13;;;;;;;21.47;18.80;;;18.70;99.90;;;;;;5007875;28;20434;-83
2022/09/11 10:10:02;;;;;;;22.47;17.80;;;18.90;99.90;;;;;;5024315;28;20469;-85
2022/09/11 10:12:31;;;;;;;21.83;17.20;;;18.90;99.90;;;;;;5007121;28;20454;-83
2022/09/11 10:15:06;;;;;;;20.30;17.00;;;18.70;99.90;;;;;;5016638;28;20497;-84
2022/09/11 10:17:45;;;;;;;21.80;17.63;;;18.60;99.90;;;;;;5008763;28;20454;-84
2022/09/11 10:20:18;;;;;;;29.23;19.17;;;18.80;99.90;;;;;;5009685;28;20477;-83
2022/09/11 10:23:17;;;;;;;22.60;18.30;;;19.50;99.90;;;;;;5013180;28;20477;-81
2022/09/11 10:25:48;;;;;;;24.27;18.60;;;19.70;99.90;;;;;;5024433;28;20484;-83
2022/09/11 10:28:46;;;;;;;26.13;18.33;;;19.80;99.90;;;;;;5015735;28;20454;-82
2022/09/11 10:31:21;;;;;;;22.53;17.70;;;20.00;99.90;;;;;;5011950;28;20465;-83
2022/09/11 10:33:55;;;;;;;21.20;17.63;;;19.90;99.90;;;;;;5017920;28;20532;-83
2022/09/11 10:36:26;;;;;;;23.10;17.57;;;19.80;99.90;;;;;;5016813;28;20458;-84
2022/09/11 10:39:05;;;;;;;21.97;17.23;;;19.90;99.90;;;;;;5026483;28;20481;-84
2022/09/11 10:41:40;;;;;;;23.90;18.87;;;19.90;99.90;;;;;;5015033;28;20461;-83
2022/09/11 10:44:19;;;;;;;24.53;18.63;;;20.50;99.90;;;;;;5018728;28;21064;-83
2022/09/11 10:47:14;;;;;;;25.77;19.33;;;21.10;99.90;;;;;;5027867;28;20461;-82
2022/09/11 10:49:47;;;;;;;22.50;18.77;;;20.90;99.90;;;;;;5014477;28;20466;-85
2022/09/11 10:52:17;;;;;;;23.23;18.57;;;20.70;99.90;;;;;;5021409;28;20468;-84
2022/09/11 10:55:11;;;;;;;22.70;17.97;;;20.50;99.90;;;;;;5029317;28;20465;-82
2022/09/11 10:57:50;;;;;;;24.13;19.50;;;20.60;99.90;;;;;;5018628;28;21210;-84
2022/09/11 11:00:26;;;;;;;25.27;18.73;;;20.80;99.90;;;;;;5016355;28;20452;-84
2022/09/11 11:03:11;;;;;;;20.83;18.10;;;20.90;99.90;;;;;;5022662;28;20492;-85
2022/09/11 11:06:08;;;;;;;23.27;18.87;;;20.90;99.90;;;;;;5032368;28;20430;-82
2022/09/11 11:09:32;;;;;;;21.60;18.77;;;21.00;99.90;;;;;;5022951;28;20434;-84
2022/09/11 11:12:31;;;;;;;19.93;16.83;;;21.40;99.70;;;;;;5027181;28;20484;-83
2022/09/11 11:15:37;;;;;;;20.37;16.50;;;21.90;98.80;;;;;;4982212;28;20657;-84
2022/09/11 11:18:25;;;;;;;19.10;15.93;;;22.30;96.80;;;;;;4994361;28;20482;-82
2022/09/11 11:21:39;;;;;;;22.60;18.13;;;22.10;97.20;;;;;;4981565;28;20463;-85
2022/09/11 11:24:24;;;;;;;17.37;15.13;;;22.60;97.60;;;;;;4995958;28;20471;-82
2022/09/11 11:27:23;;;;;;;17.33;15.53;;;23.20;95.80;;;;;;4993140;28;20486;-79
2022/09/11 11:30:18;;;;;;;15.80;14.10;;;23.50;94.90;;;;;;4994573;28;20483;-84
2022/09/11 11:33:08;;;;;;;15.53;13.93;;;23.80;95.00;;;;;;4972923;28;20629;-83
2022/09/11 11:35:56;;;;;;;16.33;14.63;;;23.90;93.20;;;;;;4968709;28;20466;-83
2022/09/11 11:38:51;;;;;;;14.43;12.93;;;24.10;93.00;;;;;;4968065;28;20451;-82
2022/09/11 11:41:43;;;;;;;12.90;11.70;;;24.50;92.30;;;;;;5001671;28;20462;-83
2022/09/11 11:44:29;;;;;;;16.10;13.97;;;24.50;90.50;;;;;;5030657;28;21058;-86
2022/09/11 11:47:09;;;;;;;15.63;14.23;;;24.30;90.50;;;;;;5024933;28;20444;-83
2022/09/11 11:50:31;;;;;;;13.57;12.27;;;24.10;91.00;;;;;;5042435;28;20466;-83
2022/09/11 11:53:31;;;;;;;13.00;11.80;;;24.20;91.00;;;;;;5040161;28;20472;-84
2022/09/11 11:56:15;;;;;;;15.87;14.27;;;24.80;90.20;;;;;;5050750;28;20604;-83
2022/09/11 11:59:39;;;;;;;14.90;13.30;;;24.90;88.30;;;;;;5043374;28;21870;-83
2022/09/11 12:02:28;;;;;;;13.63;12.20;;;24.90;88.30;;;;;;5030973;28;20442;-84
2022/09/11 12:05:31;;;;;;;14.40;12.90;;;24.90;88.20;;;;;;5031985;28;20474;-83
2022/09/11 12:08:05;;;;;;;13.57;12.27;;;24.80;87.90;;;;;;5028147;28;20456;-84
2022/09/11 12:10:59;;;;;;;13.13;11.83;;;24.80;89.00;;;;;;5021608;28;20405;-85
2022/09/11 12:13:52;;;;;;;11.70;10.60;;;25.80;84.90;;;;;;5031183;28;20972;-82
2022/09/11 12:16:34;;;;;;;12.03;10.83;;;25.60;83.10;;;;;;5016638;28;20461;-83
2022/09/11 12:19:21;;;;;;;13.37;12.07;;;26.40;80.00;;;;;;5016889;28;20480;-83
2022/09/11 12:21:51;;;;;;;11.47;10.47;;;27.00;74.30;;;;;;5021509;28;20437;-84
2022/09/11 12:24:58;;;;;;;11.20;10.17;;;26.90;73.50;;;;;;5027361;28;20469;-83
2022/09/11 12:27:38;;;;;;;11.70;10.60;;;26.70;74.10;;;;;;5029507;28;20462;-83
2022/09/11 12:30:20;;;;;;;10.87;9.80;;;27.10;72.60;;;;;;5031914;28;21221;-83
2022/09/11 12:33:01;;;;;;;10.17;9.27;;;26.40;73.50;;;;;;5027448;28;20427;-83
2022/09/11 12:35:51;;;;;;;8.90;8.00;;;26.40;74.30;;;;;;5044081;28;20458;-80
2022/09/11 12:38:30;;;;;;;8.30;7.50;;;26.30;74.00;;;;;;5026895;28;20449;-83
2022/09/11 12:41:08;;;;;;;7.77;7.07;;;27.10;69.50;;;;;;5017558;28;20450;-84
2022/09/11 12:43:44;;;;;;;8.63;7.83;;;26.80;68.00;;;;;;5013402;28;20482;-85
2022/09/11 12:46:20;;;;;;;9.27;8.47;;;26.40;67.60;;;;;;5016243;28;20534;-84
2022/09/11 12:49:04;;;;;;;8.17;7.40;;;26.60;68.50;;;;;;5016078;28;20474;-85
2022/09/11 12:51:54;;;;;;;9.20;8.40;;;27.70;63.00;;;;;;5016168;28;20450;-84
2022/09/11 12:54:36;;;;;;;8.13;7.43;;;27.30;62.50;;;;;;5019882;28;20461;-83
2022/09/11 12:57:20;;;;;;;8.77;7.97;;;26.80;66.00;;;;;;5021206;28;20481;-83
2022/09/11 12:59:58;;;;;;;9.20;8.40;;;26.60;68.30;;;;;;5024035;28;20475;-83
2022/09/11 13:02:45;;;;;;;10.00;9.10;;;26.50;69.10;;;;;;5014332;28;20530;-83
2022/09/11 13:05:35;;;;;;;10.13;9.13;;;26.60;70.90;;;;;;5015076;28;21857;-83
2022/09/11 13:08:27;;;;;;;10.20;9.40;;;27.00;69.10;;;;;;5013638;28;20438;-85
2022/09/11 13:11:48;;;;;;;8.57;7.87;;;26.90;66.90;;;;;;5012527;28;20469;-84
2022/09/11 13:14:44;;;;;;;9.10;8.30;;;26.60;68.40;;;;;;5009189;28;20678;-83
2022/09/11 13:17:52;;;;;;;9.30;8.40;;;27.70;65.30;;;;;;5023861;28;20594;-83
2022/09/11 13:20:29;;;;;;;9.43;8.57;;;27.70;65.10;;;;;;5025286;28;20800;-82
2022/09/11 13:23:17;;;;;;;9.10;8.07;;;27.50;65.80;;;;;;5012090;28;20454;-83
2022/09/11 13:25:47;;;;;;;8.57;7.90;;;27.40;65.30;;;;;;5011817;28;20458;-83
2022/09/11 13:31:08;;;;;;;9.43;8.53;;;28.40;60.60;;;;;;5028928;22;21161;-84